sensor_id;sensor_type;location;lat;lon;timestamp;P1;durP1;ratioP1;P2;durP2;ratioP2
4700;SDS011;8724;51.272;6.554;2023-04-09T00:02:24;23.90;;;18.50;;
4700;SDS011;8724;51.272;6.554;2023-04-09T00:04:54;22.97;;;19.60;;
4700;SDS011;8724;51.272;6.554;2023-04-09T00:07:23;21.97;;;18.13;;
4700;SDS011;8724;51.272;6.554;2023-04-09T00:09:51;23.53;;;19.63;;
4700;SDS011;8724;51.272;6.554;2023-04-09T00:12:20;25.73;;;18.83;;
4700;SDS011;8724;51.272;6.554;2023-04-09T00:14:48;20.67;;;17.87;;
4700;SDS011;8724;51.272;6.554;2023-04-09T00:17:17;21.40;;;19.10;;
4700;SDS011;8724;51.272;6.554;2023-04-09T00:19:45;22.13;;;18.03;;
4700;SDS011;8724;51.272;6.554;2023-04-09T00:22:15;24.63;;;20.37;;
4700;SDS011;8724;51.272;6.554;2023-04-09T00:24:43;23.37;;;20.37;;
4700;SDS011;8724;51.272;6.554;2023-04-09T00:27:12;20.90;;;18.70;;
4700;SDS011;8724;51.272;6.554;2023-04-09T00:29:41;21.07;;;18.50;;
4700;SDS011;8724;51.272;6.554;2023-04-09T00:32:09;20.60;;;18.00;;
4700;SDS011;8724;51.272;6.554;2023-04-09T00:34:37;23.87;;;18.40;;
4700;SDS011;8724;51.272;6.554;2023-04-09T00:37:06;19.43;;;17.33;;
4700;SDS011;8724;51.272;6.554;2023-04-09T00:39:36;19.47;;;16.77;;
4700;SDS011;8724;51.272;6.554;2023-04-09T00:42:04;20.87;;;18.23;;
4700;SDS011;8724;51.272;6.554;2023-04-09T00:44:33;20.10;;;18.00;;
4700;SDS011;8724;51.272;6.554;2023-04-09T00:47:01;20.50;;;18.30;;
4700;SDS011;8724;51.272;6.554;2023-04-09T00:49:30;25.37;;;19.40;;
4700;SDS011;8724;51.272;6.554;2023-04-09T00:51:58;24.70;;;18.80;;
4700;SDS011;8724;51.272;6.554;2023-04-09T00:54:27;22.43;;;18.03;;
4700;SDS011;8724;51.272;6.554;2023-04-09T00:56:57;22.20;;;16.53;;
4700;SDS011;8724;51.272;6.554;2023-04-09T00:59:26;23.67;;;19.43;;
4700;SDS011;8724;51.272;6.554;2023-04-09T01:01:55;23.60;;;19.13;;
4700;SDS011;8724;51.272;6.554;2023-04-09T01:04:24;24.80;;;19.10;;
4700;SDS011;8724;51.272;6.554;2023-04-09T01:06:54;24.13;;;19.80;;
4700;SDS011;8724;51.272;6.554;2023-04-09T01:09:26;25.27;;;19.53;;
4700;SDS011;8724;51.272;6.554;2023-04-09T01:12:00;25.30;;;19.13;;
4700;SDS011;8724;51.272;6.554;2023-04-09T01:14:40;22.27;;;19.27;;
4700;SDS011;8724;51.272;6.554;2023-04-09T01:17:18;26.20;;;19.70;;
4700;SDS011;8724;51.272;6.554;2023-04-09T01:19:53;23.77;;;19.03;;
4700;SDS011;8724;51.272;6.554;2023-04-09T01:22:30;22.37;;;17.37;;
4700;SDS011;8724;51.272;6.554;2023-04-09T01:25:10;24.63;;;19.03;;
4700;SDS011;8724;51.272;6.554;2023-04-09T01:27:54;23.93;;;19.13;;
4700;SDS011;8724;51.272;6.554;2023-04-09T01:30:40;26.23;;;20.10;;
4700;SDS011;8724;51.272;6.554;2023-04-09T01:33:13;25.20;;;19.70;;
4700;SDS011;8724;51.272;6.554;2023-04-09T01:35:43;24.20;;;19.47;;
4700;SDS011;8724;51.272;6.554;2023-04-09T01:38:15;22.67;;;18.70;;
4700;SDS011;8724;51.272;6.554;2023-04-09T01:40:47;28.40;;;18.70;;
4700;SDS011;8724;51.272;6.554;2023-04-09T01:43:18;22.13;;;18.97;;
4700;SDS011;8724;51.272;6.554;2023-04-09T01:45:47;22.73;;;18.90;;
4700;SDS011;8724;51.272;6.554;2023-04-09T01:48:17;26.30;;;21.23;;
4700;SDS011;8724;51.272;6.554;2023-04-09T01:50:47;21.50;;;19.20;;
4700;SDS011;8724;51.272;6.554;2023-04-09T01:53:16;24.97;;;20.80;;
4700;SDS011;8724;51.272;6.554;2023-04-09T01:55:45;24.50;;;20.90;;
4700;SDS011;8724;51.272;6.554;2023-04-09T01:58:13;25.57;;;20.37;;
4700;SDS011;8724;51.272;6.554;2023-04-09T02:00:44;24.73;;;19.70;;
4700;SDS011;8724;51.272;6.554;2023-04-09T02:03:15;24.13;;;19.97;;
4700;SDS011;8724;51.272;6.554;2023-04-09T02:05:48;25.07;;;20.37;;
4700;SDS011;8724;51.272;6.554;2023-04-09T02:08:28;26.67;;;21.70;;
4700;SDS011;8724;51.272;6.554;2023-04-09T02:10:59;25.63;;;21.40;;
4700;SDS011;8724;51.272;6.554;2023-04-09T02:13:32;30.90;;;21.67;;
4700;SDS011;8724;51.272;6.554;2023-04-09T02:16:03;32.00;;;22.40;;
4700;SDS011;8724;51.272;6.554;2023-04-09T02:18:32;26.23;;;22.30;;
4700;SDS011;8724;51.272;6.554;2023-04-09T02:21:00;26.73;;;21.00;;
4700;SDS011;8724;51.272;6.554;2023-04-09T02:23:30;29.50;;;22.20;;
4700;SDS011;8724;51.272;6.554;2023-04-09T02:25:59;29.67;;;22.57;;
4700;SDS011;8724;51.272;6.554;2023-04-09T02:28:29;24.50;;;20.00;;
4700;SDS011;8724;51.272;6.554;2023-04-09T02:30:57;28.30;;;24.43;;
4700;SDS011;8724;51.272;6.554;2023-04-09T02:33:27;26.33;;;21.73;;
4700;SDS011;8724;51.272;6.554;2023-04-09T02:35:55;33.30;;;23.13;;
4700;SDS011;8724;51.272;6.554;2023-04-09T02:38:24;30.03;;;22.00;;
4700;SDS011;8724;51.272;6.554;2023-04-09T02:40:52;33.83;;;24.23;;
4700;SDS011;8724;51.272;6.554;2023-04-09T02:43:21;24.90;;;20.70;;
4700;SDS011;8724;51.272;6.554;2023-04-09T02:45:49;26.90;;;21.67;;
4700;SDS011;8724;51.272;6.554;2023-04-09T02:48:18;27.73;;;21.80;;
4700;SDS011;8724;51.272;6.554;2023-04-09T02:50:48;26.47;;;22.23;;
4700;SDS011;8724;51.272;6.554;2023-04-09T02:53:16;34.30;;;21.40;;
4700;SDS011;8724;51.272;6.554;2023-04-09T02:55:46;26.30;;;21.27;;
4700;SDS011;8724;51.272;6.554;2023-04-09T02:58:15;25.80;;;20.60;;
4700;SDS011;8724;51.272;6.554;2023-04-09T03:00:43;26.13;;;21.43;;
4700;SDS011;8724;51.272;6.554;2023-04-09T03:03:12;28.23;;;21.17;;
4700;SDS011;8724;51.272;6.554;2023-04-09T03:05:40;27.80;;;22.70;;
4700;SDS011;8724;51.272;6.554;2023-04-09T03:08:10;27.90;;;20.90;;
4700;SDS011;8724;51.272;6.554;2023-04-09T03:10:38;24.60;;;20.63;;
4700;SDS011;8724;51.272;6.554;2023-04-09T03:13:06;28.57;;;19.97;;
4700;SDS011;8724;51.272;6.554;2023-04-09T03:15:35;22.00;;;19.23;;
4700;SDS011;8724;51.272;6.554;2023-04-09T03:18:03;27.43;;;20.30;;
4700;SDS011;8724;51.272;6.554;2023-04-09T03:20:32;24.77;;;20.90;;
4700;SDS011;8724;51.272;6.554;2023-04-09T03:23:01;26.53;;;21.63;;
4700;SDS011;8724;51.272;6.554;2023-04-09T03:25:36;24.03;;;20.27;;
4700;SDS011;8724;51.272;6.554;2023-04-09T03:28:11;23.80;;;20.23;;
4700;SDS011;8724;51.272;6.554;2023-04-09T03:30:43;26.50;;;20.30;;
4700;SDS011;8724;51.272;6.554;2023-04-09T03:33:13;28.00;;;20.87;;
4700;SDS011;8724;51.272;6.554;2023-04-09T03:35:49;24.90;;;20.83;;
4700;SDS011;8724;51.272;6.554;2023-04-09T03:38:27;24.37;;;21.23;;
4700;SDS011;8724;51.272;6.554;2023-04-09T03:40:58;24.37;;;20.17;;
4700;SDS011;8724;51.272;6.554;2023-04-09T03:43:27;23.33;;;19.50;;
4700;SDS011;8724;51.272;6.554;2023-04-09T03:45:55;27.17;;;19.80;;
4700;SDS011;8724;51.272;6.554;2023-04-09T03:48:25;24.87;;;19.53;;
4700;SDS011;8724;51.272;6.554;2023-04-09T03:50:55;25.00;;;20.43;;
4700;SDS011;8724;51.272;6.554;2023-04-09T03:53:32;25.23;;;19.77;;
4700;SDS011;8724;51.272;6.554;2023-04-09T03:56:06;25.43;;;20.57;;
4700;SDS011;8724;51.272;6.554;2023-04-09T03:58:35;26.93;;;20.73;;
4700;SDS011;8724;51.272;6.554;2023-04-09T04:01:06;23.97;;;20.10;;
4700;SDS011;8724;51.272;6.554;2023-04-09T04:03:51;27.60;;;20.50;;
4700;SDS011;8724;51.272;6.554;2023-04-09T04:06:22;67.37;;;48.27;;
4700;SDS011;8724;51.272;6.554;2023-04-09T04:09:11;45.07;;;34.93;;
4700;SDS011;8724;51.272;6.554;2023-04-09T04:11:47;35.77;;;30.00;;
4700;SDS011;8724;51.272;6.554;2023-04-09T04:14:17;33.20;;;23.80;;
4700;SDS011;8724;51.272;6.554;2023-04-09T04:16:51;24.90;;;21.63;;
4700;SDS011;8724;51.272;6.554;2023-04-09T04:19:25;26.30;;;21.03;;
4700;SDS011;8724;51.272;6.554;2023-04-09T04:21:55;24.00;;;20.20;;
4700;SDS011;8724;51.272;6.554;2023-04-09T04:24:23;26.70;;;20.07;;
4700;SDS011;8724;51.272;6.554;2023-04-09T04:26:53;25.40;;;20.77;;
4700;SDS011;8724;51.272;6.554;2023-04-09T04:29:26;25.80;;;20.60;;
4700;SDS011;8724;51.272;6.554;2023-04-09T04:31:58;25.43;;;19.37;;
4700;SDS011;8724;51.272;6.554;2023-04-09T04:34:32;23.60;;;19.30;;
4700;SDS011;8724;51.272;6.554;2023-04-09T04:37:08;25.20;;;20.70;;
4700;SDS011;8724;51.272;6.554;2023-04-09T04:39:37;22.67;;;18.90;;
4700;SDS011;8724;51.272;6.554;2023-04-09T04:42:11;21.03;;;18.73;;
4700;SDS011;8724;51.272;6.554;2023-04-09T04:44:39;24.60;;;19.10;;
4700;SDS011;8724;51.272;6.554;2023-04-09T04:47:24;27.60;;;20.70;;
4700;SDS011;8724;51.272;6.554;2023-04-09T04:49:53;23.60;;;20.27;;
4700;SDS011;8724;51.272;6.554;2023-04-09T04:52:21;23.40;;;19.53;;
4700;SDS011;8724;51.272;6.554;2023-04-09T04:54:52;28.37;;;20.27;;
4700;SDS011;8724;51.272;6.554;2023-04-09T04:57:23;22.60;;;18.80;;
4700;SDS011;8724;51.272;6.554;2023-04-09T04:59:53;23.50;;;20.00;;
4700;SDS011;8724;51.272;6.554;2023-04-09T05:02:21;26.53;;;21.57;;
4700;SDS011;8724;51.272;6.554;2023-04-09T05:05:14;25.03;;;20.10;;
4700;SDS011;8724;51.272;6.554;2023-04-09T05:07:48;27.63;;;21.00;;
4700;SDS011;8724;51.272;6.554;2023-04-09T05:10:16;27.57;;;20.67;;
4700;SDS011;8724;51.272;6.554;2023-04-09T05:12:47;25.43;;;20.13;;
4700;SDS011;8724;51.272;6.554;2023-04-09T05:15:24;22.63;;;19.10;;
4700;SDS011;8724;51.272;6.554;2023-04-09T05:17:53;28.80;;;19.87;;
4700;SDS011;8724;51.272;6.554;2023-04-09T05:20:22;26.67;;;21.97;;
4700;SDS011;8724;51.272;6.554;2023-04-09T05:23:01;41.90;;;32.67;;
4700;SDS011;8724;51.272;6.554;2023-04-09T05:25:35;35.07;;;29.00;;
4700;SDS011;8724;51.272;6.554;2023-04-09T05:28:05;31.00;;;25.10;;
4700;SDS011;8724;51.272;6.554;2023-04-09T05:30:37;28.03;;;22.23;;
4700;SDS011;8724;51.272;6.554;2023-04-09T05:33:07;22.80;;;20.40;;
4700;SDS011;8724;51.272;6.554;2023-04-09T05:35:37;23.43;;;19.40;;
4700;SDS011;8724;51.272;6.554;2023-04-09T05:38:05;22.83;;;19.03;;
4700;SDS011;8724;51.272;6.554;2023-04-09T05:40:34;23.30;;;19.03;;
4700;SDS011;8724;51.272;6.554;2023-04-09T05:43:10;20.80;;;17.10;;
4700;SDS011;8724;51.272;6.554;2023-04-09T05:45:42;22.40;;;17.17;;
4700;SDS011;8724;51.272;6.554;2023-04-09T05:48:10;20.30;;;15.27;;
4700;SDS011;8724;51.272;6.554;2023-04-09T05:50:38;18.70;;;14.87;;
4700;SDS011;8724;51.272;6.554;2023-04-09T05:53:23;19.50;;;17.40;;
4700;SDS011;8724;51.272;6.554;2023-04-09T05:55:51;19.07;;;16.00;;
4700;SDS011;8724;51.272;6.554;2023-04-09T05:58:26;20.83;;;17.80;;
4700;SDS011;8724;51.272;6.554;2023-04-09T06:00:56;21.67;;;17.90;;
4700;SDS011;8724;51.272;6.554;2023-04-09T06:03:25;23.37;;;17.97;;
4700;SDS011;8724;51.272;6.554;2023-04-09T06:05:54;20.33;;;17.60;;
4700;SDS011;8724;51.272;6.554;2023-04-09T06:08:22;19.73;;;16.60;;
4700;SDS011;8724;51.272;6.554;2023-04-09T06:10:51;24.10;;;16.50;;
4700;SDS011;8724;51.272;6.554;2023-04-09T06:13:19;20.30;;;17.13;;
4700;SDS011;8724;51.272;6.554;2023-04-09T06:15:49;23.37;;;17.50;;
4700;SDS011;8724;51.272;6.554;2023-04-09T06:18:18;20.40;;;17.63;;
4700;SDS011;8724;51.272;6.554;2023-04-09T06:20:46;24.17;;;18.63;;
4700;SDS011;8724;51.272;6.554;2023-04-09T06:23:14;26.50;;;21.60;;
4700;SDS011;8724;51.272;6.554;2023-04-09T06:25:42;57.10;;;38.20;;
4700;SDS011;8724;51.272;6.554;2023-04-09T06:28:11;37.10;;;26.43;;
4700;SDS011;8724;51.272;6.554;2023-04-09T06:30:39;25.10;;;22.07;;
4700;SDS011;8724;51.272;6.554;2023-04-09T06:33:09;23.17;;;19.47;;
4700;SDS011;8724;51.272;6.554;2023-04-09T06:35:37;24.20;;;18.43;;
4700;SDS011;8724;51.272;6.554;2023-04-09T06:38:06;21.73;;;18.30;;
4700;SDS011;8724;51.272;6.554;2023-04-09T06:40:35;20.43;;;17.60;;
4700;SDS011;8724;51.272;6.554;2023-04-09T06:43:04;22.60;;;18.70;;
4700;SDS011;8724;51.272;6.554;2023-04-09T06:45:42;20.90;;;17.77;;
4700;SDS011;8724;51.272;6.554;2023-04-09T06:48:11;20.87;;;18.70;;
4700;SDS011;8724;51.272;6.554;2023-04-09T06:50:40;27.53;;;18.37;;
4700;SDS011;8724;51.272;6.554;2023-04-09T06:53:08;23.43;;;19.10;;
4700;SDS011;8724;51.272;6.554;2023-04-09T06:55:37;21.63;;;18.33;;
4700;SDS011;8724;51.272;6.554;2023-04-09T06:58:05;19.03;;;17.03;;
4700;SDS011;8724;51.272;6.554;2023-04-09T07:00:34;20.20;;;17.20;;
4700;SDS011;8724;51.272;6.554;2023-04-09T07:03:02;20.23;;;18.10;;
4700;SDS011;8724;51.272;6.554;2023-04-09T07:05:35;21.87;;;17.37;;
4700;SDS011;8724;51.272;6.554;2023-04-09T07:08:03;24.63;;;18.30;;
4700;SDS011;8724;51.272;6.554;2023-04-09T07:10:32;63.97;;;46.97;;
4700;SDS011;8724;51.272;6.554;2023-04-09T07:13:00;76.57;;;54.60;;
4700;SDS011;8724;51.272;6.554;2023-04-09T07:15:29;45.70;;;36.73;;
4700;SDS011;8724;51.272;6.554;2023-04-09T07:17:57;37.00;;;28.63;;
4700;SDS011;8724;51.272;6.554;2023-04-09T07:20:26;30.40;;;24.10;;
4700;SDS011;8724;51.272;6.554;2023-04-09T07:22:56;24.10;;;20.10;;
4700;SDS011;8724;51.272;6.554;2023-04-09T07:25:24;23.50;;;18.40;;
4700;SDS011;8724;51.272;6.554;2023-04-09T07:27:53;20.17;;;16.90;;
4700;SDS011;8724;51.272;6.554;2023-04-09T07:30:22;20.47;;;15.80;;
4700;SDS011;8724;51.272;6.554;2023-04-09T07:32:51;18.33;;;15.83;;
4700;SDS011;8724;51.272;6.554;2023-04-09T07:35:20;17.70;;;14.97;;
4700;SDS011;8724;51.272;6.554;2023-04-09T07:37:48;17.00;;;14.50;;
4700;SDS011;8724;51.272;6.554;2023-04-09T07:40:18;18.17;;;13.80;;
4700;SDS011;8724;51.272;6.554;2023-04-09T07:42:46;18.30;;;14.40;;
4700;SDS011;8724;51.272;6.554;2023-04-09T07:45:15;16.47;;;14.23;;
4700;SDS011;8724;51.272;6.554;2023-04-09T07:47:43;16.33;;;13.20;;
4700;SDS011;8724;51.272;6.554;2023-04-09T07:50:12;19.70;;;15.83;;
4700;SDS011;8724;51.272;6.554;2023-04-09T07:52:41;68.97;;;49.90;;
4700;SDS011;8724;51.272;6.554;2023-04-09T07:55:09;61.13;;;42.53;;
4700;SDS011;8724;51.272;6.554;2023-04-09T07:57:39;42.17;;;32.70;;
4700;SDS011;8724;51.272;6.554;2023-04-09T08:00:09;30.27;;;23.63;;
4700;SDS011;8724;51.272;6.554;2023-04-09T08:02:42;25.13;;;19.97;;
4700;SDS011;8724;51.272;6.554;2023-04-09T08:05:11;17.77;;;15.13;;
4700;SDS011;8724;51.272;6.554;2023-04-09T08:07:39;16.30;;;14.40;;
4700;SDS011;8724;51.272;6.554;2023-04-09T08:10:08;16.17;;;13.10;;
4700;SDS011;8724;51.272;6.554;2023-04-09T08:12:42;15.50;;;12.00;;
4700;SDS011;8724;51.272;6.554;2023-04-09T08:15:10;12.33;;;10.23;;
4700;SDS011;8724;51.272;6.554;2023-04-09T08:17:39;12.37;;;9.63;;
4700;SDS011;8724;51.272;6.554;2023-04-09T08:20:08;11.20;;;9.70;;
4700;SDS011;8724;51.272;6.554;2023-04-09T08:22:37;12.13;;;9.97;;
4700;SDS011;8724;51.272;6.554;2023-04-09T08:25:06;12.03;;;9.60;;
4700;SDS011;8724;51.272;6.554;2023-04-09T08:27:35;10.60;;;8.97;;
4700;SDS011;8724;51.272;6.554;2023-04-09T08:30:07;9.40;;;8.47;;
4700;SDS011;8724;51.272;6.554;2023-04-09T08:32:36;9.03;;;8.13;;
4700;SDS011;8724;51.272;6.554;2023-04-09T08:35:05;8.83;;;7.83;;
4700;SDS011;8724;51.272;6.554;2023-04-09T08:37:34;9.43;;;8.50;;
4700;SDS011;8724;51.272;6.554;2023-04-09T08:40:03;8.60;;;7.70;;
4700;SDS011;8724;51.272;6.554;2023-04-09T08:42:33;11.33;;;9.20;;
4700;SDS011;8724;51.272;6.554;2023-04-09T08:45:03;8.67;;;7.73;;
4700;SDS011;8724;51.272;6.554;2023-04-09T08:47:33;9.10;;;7.90;;
4700;SDS011;8724;51.272;6.554;2023-04-09T08:50:04;10.83;;;8.07;;
4700;SDS011;8724;51.272;6.554;2023-04-09T08:52:33;8.07;;;7.27;;
4700;SDS011;8724;51.272;6.554;2023-04-09T08:55:02;7.73;;;7.00;;
4700;SDS011;8724;51.272;6.554;2023-04-09T08:57:35;9.43;;;8.27;;
4700;SDS011;8724;51.272;6.554;2023-04-09T09:00:05;10.93;;;9.43;;
4700;SDS011;8724;51.272;6.554;2023-04-09T09:02:36;10.03;;;8.20;;
4700;SDS011;8724;51.272;6.554;2023-04-09T09:05:05;25.00;;;17.50;;
4700;SDS011;8724;51.272;6.554;2023-04-09T09:07:34;30.43;;;21.77;;
4700;SDS011;8724;51.272;6.554;2023-04-09T09:10:03;25.20;;;18.83;;
4700;SDS011;8724;51.272;6.554;2023-04-09T09:12:33;20.70;;;14.90;;
4700;SDS011;8724;51.272;6.554;2023-04-09T09:15:04;15.13;;;12.73;;
4700;SDS011;8724;51.272;6.554;2023-04-09T09:17:53;14.93;;;11.30;;
4700;SDS011;8724;51.272;6.554;2023-04-09T09:20:23;11.50;;;10.20;;
4700;SDS011;8724;51.272;6.554;2023-04-09T09:22:53;12.13;;;8.37;;
4700;SDS011;8724;51.272;6.554;2023-04-09T09:25:23;11.37;;;7.83;;
4700;SDS011;8724;51.272;6.554;2023-04-09T09:27:52;8.53;;;7.73;;
4700;SDS011;8724;51.272;6.554;2023-04-09T09:30:22;8.17;;;7.37;;
4700;SDS011;8724;51.272;6.554;2023-04-09T09:32:53;8.80;;;7.77;;
4700;SDS011;8724;51.272;6.554;2023-04-09T09:35:33;8.90;;;8.00;;
4700;SDS011;8724;51.272;6.554;2023-04-09T09:38:14;7.80;;;7.03;;
4700;SDS011;8724;51.272;6.554;2023-04-09T09:40:43;7.53;;;6.47;;
4700;SDS011;8724;51.272;6.554;2023-04-09T09:43:12;6.97;;;6.27;;
4700;SDS011;8724;51.272;6.554;2023-04-09T09:45:41;6.33;;;5.73;;
4700;SDS011;8724;51.272;6.554;2023-04-09T09:48:12;8.70;;;6.43;;
4700;SDS011;8724;51.272;6.554;2023-04-09T09:50:41;7.97;;;6.27;;
4700;SDS011;8724;51.272;6.554;2023-04-09T09:53:10;6.03;;;5.43;;
4700;SDS011;8724;51.272;6.554;2023-04-09T09:55:42;6.80;;;5.63;;
4700;SDS011;8724;51.272;6.554;2023-04-09T09:58:16;5.90;;;5.33;;
4700;SDS011;8724;51.272;6.554;2023-04-09T10:00:49;6.10;;;5.60;;
4700;SDS011;8724;51.272;6.554;2023-04-09T10:03:21;6.03;;;5.43;;
4700;SDS011;8724;51.272;6.554;2023-04-09T10:05:53;5.90;;;5.40;;
4700;SDS011;8724;51.272;6.554;2023-04-09T10:08:23;5.10;;;4.33;;
4700;SDS011;8724;51.272;6.554;2023-04-09T10:10:52;5.17;;;4.73;;
4700;SDS011;8724;51.272;6.554;2023-04-09T10:13:23;5.10;;;4.70;;
4700;SDS011;8724;51.272;6.554;2023-04-09T10:15:57;6.53;;;5.73;;
4700;SDS011;8724;51.272;6.554;2023-04-09T10:18:28;5.67;;;5.13;;
4700;SDS011;8724;51.272;6.554;2023-04-09T10:21:02;4.70;;;4.30;;
4700;SDS011;8724;51.272;6.554;2023-04-09T10:23:38;5.20;;;4.70;;
4700;SDS011;8724;51.272;6.554;2023-04-09T10:26:08;5.50;;;5.00;;
4700;SDS011;8724;51.272;6.554;2023-04-09T10:28:37;5.00;;;4.43;;
4700;SDS011;8724;51.272;6.554;2023-04-09T10:31:05;5.83;;;4.40;;
4700;SDS011;8724;51.272;6.554;2023-04-09T10:33:36;5.07;;;4.60;;
4700;SDS011;8724;51.272;6.554;2023-04-09T10:36:09;4.73;;;3.57;;
4700;SDS011;8724;51.272;6.554;2023-04-09T10:38:39;5.07;;;4.57;;
4700;SDS011;8724;51.272;6.554;2023-04-09T10:41:14;4.93;;;3.67;;
4700;SDS011;8724;51.272;6.554;2023-04-09T10:43:48;4.47;;;3.57;;
4700;SDS011;8724;51.272;6.554;2023-04-09T10:46:27;5.70;;;4.80;;
4700;SDS011;8724;51.272;6.554;2023-04-09T10:49:07;5.50;;;4.93;;
4700;SDS011;8724;51.272;6.554;2023-04-09T10:51:37;5.57;;;4.90;;
4700;SDS011;8724;51.272;6.554;2023-04-09T10:54:07;5.20;;;4.70;;
4700;SDS011;8724;51.272;6.554;2023-04-09T10:57:13;3.97;;;3.57;;
4700;SDS011;8724;51.272;6.554;2023-04-09T10:59:44;7.73;;;4.50;;
4700;SDS011;8724;51.272;6.554;2023-04-09T11:02:30;4.10;;;3.80;;
4700;SDS011;8724;51.272;6.554;2023-04-09T11:05:20;5.37;;;4.20;;
4700;SDS011;8724;51.272;6.554;2023-04-09T11:08:16;51.43;;;37.63;;
4700;SDS011;8724;51.272;6.554;2023-04-09T11:10:47;56.77;;;44.10;;
4700;SDS011;8724;51.272;6.554;2023-04-09T11:13:18;76.37;;;59.67;;
4700;SDS011;8724;51.272;6.554;2023-04-09T11:15:47;63.80;;;47.90;;
4700;SDS011;8724;51.272;6.554;2023-04-09T11:18:18;42.17;;;35.73;;
4700;SDS011;8724;51.272;6.554;2023-04-09T11:20:49;24.70;;;21.07;;
4700;SDS011;8724;51.272;6.554;2023-04-09T11:23:20;19.50;;;16.97;;
4700;SDS011;8724;51.272;6.554;2023-04-09T11:25:50;13.63;;;12.00;;
4700;SDS011;8724;51.272;6.554;2023-04-09T11:28:19;11.40;;;10.17;;
4700;SDS011;8724;51.272;6.554;2023-04-09T11:30:49;10.93;;;8.47;;
4700;SDS011;8724;51.272;6.554;2023-04-09T11:33:21;6.80;;;6.20;;
4700;SDS011;8724;51.272;6.554;2023-04-09T11:35:51;6.60;;;5.50;;
4700;SDS011;8724;51.272;6.554;2023-04-09T11:38:19;6.33;;;5.13;;
4700;SDS011;8724;51.272;6.554;2023-04-09T11:40:48;6.13;;;5.10;;
4700;SDS011;8724;51.272;6.554;2023-04-09T11:43:17;6.17;;;5.57;;
4700;SDS011;8724;51.272;6.554;2023-04-09T11:45:46;4.60;;;4.20;;
4700;SDS011;8724;51.272;6.554;2023-04-09T11:48:15;5.57;;;5.07;;
4700;SDS011;8724;51.272;6.554;2023-04-09T11:50:45;5.17;;;4.67;;
4700;SDS011;8724;51.272;6.554;2023-04-09T11:53:16;5.50;;;4.53;;
4700;SDS011;8724;51.272;6.554;2023-04-09T11:55:46;4.80;;;4.23;;
4700;SDS011;8724;51.272;6.554;2023-04-09T11:58:16;4.47;;;4.13;;
4700;SDS011;8724;51.272;6.554;2023-04-09T12:00:45;4.73;;;4.33;;
4700;SDS011;8724;51.272;6.554;2023-04-09T12:03:13;48.67;;;36.87;;
4700;SDS011;8724;51.272;6.554;2023-04-09T12:05:44;66.43;;;51.27;;
4700;SDS011;8724;51.272;6.554;2023-04-09T12:08:21;51.17;;;38.53;;
4700;SDS011;8724;51.272;6.554;2023-04-09T12:10:50;34.20;;;27.17;;
4700;SDS011;8724;51.272;6.554;2023-04-09T12:13:19;21.27;;;16.37;;
4700;SDS011;8724;51.272;6.554;2023-04-09T12:15:48;28.70;;;21.67;;
4700;SDS011;8724;51.272;6.554;2023-04-09T12:18:17;56.23;;;43.20;;
4700;SDS011;8724;51.272;6.554;2023-04-09T12:20:49;45.67;;;34.40;;
4700;SDS011;8724;51.272;6.554;2023-04-09T12:23:18;26.97;;;21.13;;
4700;SDS011;8724;51.272;6.554;2023-04-09T12:25:47;16.20;;;13.50;;
4700;SDS011;8724;51.272;6.554;2023-04-09T12:28:16;15.67;;;10.03;;
4700;SDS011;8724;51.272;6.554;2023-04-09T12:30:44;8.00;;;7.20;;
4700;SDS011;8724;51.272;6.554;2023-04-09T12:33:14;8.13;;;6.63;;
4700;SDS011;8724;51.272;6.554;2023-04-09T12:35:43;6.73;;;6.03;;
4700;SDS011;8724;51.272;6.554;2023-04-09T12:38:11;6.03;;;5.47;;
4700;SDS011;8724;51.272;6.554;2023-04-09T12:40:41;5.67;;;5.17;;
4700;SDS011;8724;51.272;6.554;2023-04-09T12:43:10;5.90;;;5.40;;
4700;SDS011;8724;51.272;6.554;2023-04-09T12:45:38;5.17;;;4.77;;
4700;SDS011;8724;51.272;6.554;2023-04-09T12:48:07;6.20;;;5.60;;
4700;SDS011;8724;51.272;6.554;2023-04-09T12:50:35;6.80;;;5.07;;
4700;SDS011;8724;51.272;6.554;2023-04-09T12:53:04;6.20;;;5.60;;
4700;SDS011;8724;51.272;6.554;2023-04-09T12:55:32;5.80;;;5.33;;
4700;SDS011;8724;51.272;6.554;2023-04-09T12:58:02;4.93;;;4.53;;
4700;SDS011;8724;51.272;6.554;2023-04-09T13:00:31;19.90;;;16.97;;
4700;SDS011;8724;51.272;6.554;2023-04-09T13:02:59;18.10;;;16.17;;
4700;SDS011;8724;51.272;6.554;2023-04-09T13:05:28;12.40;;;9.83;;
4700;SDS011;8724;51.272;6.554;2023-04-09T13:07:58;8.40;;;7.60;;
4700;SDS011;8724;51.272;6.554;2023-04-09T13:10:26;6.87;;;6.27;;
4700;SDS011;8724;51.272;6.554;2023-04-09T13:12:56;8.00;;;6.77;;
4700;SDS011;8724;51.272;6.554;2023-04-09T13:15:25;6.70;;;6.10;;
4700;SDS011;8724;51.272;6.554;2023-04-09T13:17:54;6.50;;;5.90;;
4700;SDS011;8724;51.272;6.554;2023-04-09T13:20:23;8.13;;;5.10;;
4700;SDS011;8724;51.272;6.554;2023-04-09T13:22:51;5.90;;;5.30;;
4700;SDS011;8724;51.272;6.554;2023-04-09T13:25:20;5.90;;;5.40;;
4700;SDS011;8724;51.272;6.554;2023-04-09T13:27:48;5.20;;;4.80;;
4700;SDS011;8724;51.272;6.554;2023-04-09T13:30:17;5.43;;;4.93;;
4700;SDS011;8724;51.272;6.554;2023-04-09T13:32:47;6.20;;;5.30;;
4700;SDS011;8724;51.272;6.554;2023-04-09T13:35:16;5.50;;;5.00;;
4700;SDS011;8724;51.272;6.554;2023-04-09T13:37:44;6.00;;;5.30;;
4700;SDS011;8724;51.272;6.554;2023-04-09T13:40:13;7.93;;;5.70;;
4700;SDS011;8724;51.272;6.554;2023-04-09T13:42:41;6.00;;;5.40;;
4700;SDS011;8724;51.272;6.554;2023-04-09T13:45:10;7.33;;;5.40;;
4700;SDS011;8724;51.272;6.554;2023-04-09T13:47:38;5.23;;;4.73;;
4700;SDS011;8724;51.272;6.554;2023-04-09T13:50:09;5.20;;;4.77;;
4700;SDS011;8724;51.272;6.554;2023-04-09T13:52:38;5.70;;;5.10;;
4700;SDS011;8724;51.272;6.554;2023-04-09T13:55:07;5.50;;;4.97;;
4700;SDS011;8724;51.272;6.554;2023-04-09T13:57:37;5.47;;;4.97;;
4700;SDS011;8724;51.272;6.554;2023-04-09T14:00:06;8.17;;;5.07;;
4700;SDS011;8724;51.272;6.554;2023-04-09T14:02:35;6.13;;;5.30;;
4700;SDS011;8724;51.272;6.554;2023-04-09T14:05:03;5.00;;;4.60;;
4700;SDS011;8724;51.272;6.554;2023-04-09T14:07:34;6.40;;;5.80;;
4700;SDS011;8724;51.272;6.554;2023-04-09T14:10:03;5.93;;;5.33;;
4700;SDS011;8724;51.272;6.554;2023-04-09T14:12:33;5.10;;;4.70;;
4700;SDS011;8724;51.272;6.554;2023-04-09T14:15:01;5.77;;;5.27;;
4700;SDS011;8724;51.272;6.554;2023-04-09T14:17:30;5.20;;;4.73;;
4700;SDS011;8724;51.272;6.554;2023-04-09T14:19:59;6.03;;;5.50;;
4700;SDS011;8724;51.272;6.554;2023-04-09T14:22:29;5.27;;;4.77;;
4700;SDS011;8724;51.272;6.554;2023-04-09T14:24:59;5.60;;;4.63;;
4700;SDS011;8724;51.272;6.554;2023-04-09T14:27:27;5.87;;;4.67;;
4700;SDS011;8724;51.272;6.554;2023-04-09T14:29:56;10.53;;;8.17;;
4700;SDS011;8724;51.272;6.554;2023-04-09T14:32:25;12.03;;;9.97;;
4700;SDS011;8724;51.272;6.554;2023-04-09T14:34:53;10.10;;;8.70;;
4700;SDS011;8724;51.272;6.554;2023-04-09T14:37:22;7.37;;;6.23;;
4700;SDS011;8724;51.272;6.554;2023-04-09T14:39:50;6.40;;;5.80;;
4700;SDS011;8724;51.272;6.554;2023-04-09T14:42:20;5.40;;;4.90;;
4700;SDS011;8724;51.272;6.554;2023-04-09T14:44:49;4.40;;;4.10;;
4700;SDS011;8724;51.272;6.554;2023-04-09T14:47:17;6.17;;;5.60;;
4700;SDS011;8724;51.272;6.554;2023-04-09T14:49:46;5.90;;;5.40;;
4700;SDS011;8724;51.272;6.554;2023-04-09T14:52:14;8.00;;;6.10;;
4700;SDS011;8724;51.272;6.554;2023-04-09T14:54:43;5.20;;;4.33;;
4700;SDS011;8724;51.272;6.554;2023-04-09T14:57:11;6.00;;;5.43;;
4700;SDS011;8724;51.272;6.554;2023-04-09T14:59:41;5.90;;;4.90;;
4700;SDS011;8724;51.272;6.554;2023-04-09T15:02:09;5.70;;;5.20;;
4700;SDS011;8724;51.272;6.554;2023-04-09T15:04:38;5.10;;;4.67;;
4700;SDS011;8724;51.272;6.554;2023-04-09T15:07:07;4.87;;;4.47;;
4700;SDS011;8724;51.272;6.554;2023-04-09T15:09:35;5.20;;;4.70;;
4700;SDS011;8724;51.272;6.554;2023-04-09T15:12:03;5.37;;;4.87;;
4700;SDS011;8724;51.272;6.554;2023-04-09T15:14:32;4.03;;;3.67;;
4700;SDS011;8724;51.272;6.554;2023-04-09T15:17:02;4.73;;;4.33;;
4700;SDS011;8724;51.272;6.554;2023-04-09T15:19:30;4.43;;;4.03;;